sensor_id;sensor_type;location;lat;lon;timestamp;P1;durP1;ratioP1;P2;durP2;ratioP2
665;SDS011;315;48.738;9.126;2023-06-22T00:01:52;14.07;;;12.60;;
665;SDS011;315;48.738;9.126;2023-06-22T00:04:17;11.90;;;10.90;;
665;SDS011;315;48.738;9.126;2023-06-22T00:06:43;11.40;;;10.50;;
665;SDS011;315;48.738;9.126;2023-06-22T00:09:08;11.87;;;10.77;;
665;SDS011;315;48.738;9.126;2023-06-22T00:11:35;13.93;;;12.67;;
665;SDS011;315;48.738;9.126;2023-06-22T00:14:01;12.60;;;11.30;;
665;SDS011;315;48.738;9.126;2023-06-22T00:16:27;10.23;;;9.40;;
665;SDS011;315;48.738;9.126;2023-06-22T00:18:53;12.43;;;11.33;;
665;SDS011;315;48.738;9.126;2023-06-22T00:21:18;12.03;;;10.83;;
665;SDS011;315;48.738;9.126;2023-06-22T00:23:45;12.70;;;11.60;;
665;SDS011;315;48.738;9.126;2023-06-22T00:26:11;12.23;;;11.23;;
665;SDS011;315;48.738;9.126;2023-06-22T00:28:37;11.30;;;10.30;;
665;SDS011;315;48.738;9.126;2023-06-22T00:31:02;15.03;;;11.17;;
665;SDS011;315;48.738;9.126;2023-06-22T00:33:28;11.37;;;10.37;;
665;SDS011;315;48.738;9.126;2023-06-22T00:35:53;9.57;;;8.63;;
665;SDS011;315;48.738;9.126;2023-06-22T00:38:19;12.20;;;11.13;;
665;SDS011;315;48.738;9.126;2023-06-22T00:40:45;14.20;;;12.00;;
665;SDS011;315;48.738;9.126;2023-06-22T00:43:11;11.20;;;9.67;;
665;SDS011;315;48.738;9.126;2023-06-22T00:45:36;10.87;;;9.80;;
665;SDS011;315;48.738;9.126;2023-06-22T00:48:03;11.47;;;10.50;;
665;SDS011;315;48.738;9.126;2023-06-22T00:50:29;13.00;;;11.80;;
665;SDS011;315;48.738;9.126;2023-06-22T00:52:58;13.67;;;12.10;;
665;SDS011;315;48.738;9.126;2023-06-22T00:55:43;13.07;;;11.23;;
665;SDS011;315;48.738;9.126;2023-06-22T00:58:16;12.20;;;10.80;;
665;SDS011;315;48.738;9.126;2023-06-22T01:00:46;11.60;;;10.60;;
665;SDS011;315;48.738;9.126;2023-06-22T01:03:12;12.47;;;11.17;;
665;SDS011;315;48.738;9.126;2023-06-22T01:05:38;12.70;;;11.57;;
665;SDS011;315;48.738;9.126;2023-06-22T01:08:27;11.10;;;10.10;;
665;SDS011;315;48.738;9.126;2023-06-22T01:11:23;13.97;;;12.37;;
665;SDS011;315;48.738;9.126;2023-06-22T01:16:41;11.90;;;10.70;;
665;SDS011;315;48.738;9.126;2023-06-22T01:21:43;11.97;;;10.87;;
665;SDS011;315;48.738;9.126;2023-06-22T01:24:22;13.03;;;11.20;;
665;SDS011;315;48.738;9.126;2023-06-22T01:27:04;11.80;;;10.70;;
665;SDS011;315;48.738;9.126;2023-06-22T01:29:58;11.30;;;10.30;;
665;SDS011;315;48.738;9.126;2023-06-22T01:32:32;12.50;;;11.20;;
665;SDS011;315;48.738;9.126;2023-06-22T01:35:00;12.20;;;11.20;;
665;SDS011;315;48.738;9.126;2023-06-22T01:37:28;11.83;;;10.80;;
665;SDS011;315;48.738;9.126;2023-06-22T01:39:57;11.73;;;10.63;;
665;SDS011;315;48.738;9.126;2023-06-22T01:42:24;12.87;;;11.70;;
665;SDS011;315;48.738;9.126;2023-06-22T01:44:50;11.20;;;10.13;;
665;SDS011;315;48.738;9.126;2023-06-22T01:47:18;11.53;;;10.33;;
665;SDS011;315;48.738;9.126;2023-06-22T01:49:43;11.87;;;10.80;;
665;SDS011;315;48.738;9.126;2023-06-22T01:52:10;14.93;;;11.30;;
665;SDS011;315;48.738;9.126;2023-06-22T01:54:37;12.40;;;11.30;;
665;SDS011;315;48.738;9.126;2023-06-22T01:57:04;12.50;;;10.90;;
665;SDS011;315;48.738;9.126;2023-06-22T02:02:21;10.00;;;9.00;;
665;SDS011;315;48.738;9.126;2023-06-22T02:04:55;12.40;;;11.13;;
665;SDS011;315;48.738;9.126;2023-06-22T02:07:24;11.37;;;10.37;;
665;SDS011;315;48.738;9.126;2023-06-22T02:09:54;12.50;;;11.30;;
665;SDS011;315;48.738;9.126;2023-06-22T02:12:22;13.60;;;11.80;;
665;SDS011;315;48.738;9.126;2023-06-22T02:14:50;10.70;;;9.80;;
665;SDS011;315;48.738;9.126;2023-06-22T02:17:17;11.70;;;10.50;;
665;SDS011;315;48.738;9.126;2023-06-22T02:19:43;12.30;;;11.17;;
665;SDS011;315;48.738;9.126;2023-06-22T02:22:09;12.27;;;11.17;;
665;SDS011;315;48.738;9.126;2023-06-22T02:24:34;11.93;;;10.67;;
665;SDS011;315;48.738;9.126;2023-06-22T02:27:00;11.10;;;10.10;;
665;SDS011;315;48.738;9.126;2023-06-22T02:29:27;12.20;;;11.20;;
665;SDS011;315;48.738;9.126;2023-06-22T02:31:53;12.43;;;11.07;;
665;SDS011;315;48.738;9.126;2023-06-22T02:34:19;12.70;;;11.50;;
665;SDS011;315;48.738;9.126;2023-06-22T02:36:46;12.50;;;11.50;;
665;SDS011;315;48.738;9.126;2023-06-22T02:39:23;10.90;;;10.00;;
665;SDS011;315;48.738;9.126;2023-06-22T02:41:49;11.17;;;10.17;;
665;SDS011;315;48.738;9.126;2023-06-22T02:44:16;11.03;;;10.03;;
665;SDS011;315;48.738;9.126;2023-06-22T02:46:42;11.70;;;10.67;;
665;SDS011;315;48.738;9.126;2023-06-22T02:49:08;13.80;;;12.67;;
665;SDS011;315;48.738;9.126;2023-06-22T02:51:34;13.43;;;11.30;;
665;SDS011;315;48.738;9.126;2023-06-22T02:54:00;13.77;;;12.50;;
665;SDS011;315;48.738;9.126;2023-06-22T02:56:26;11.93;;;10.83;;
665;SDS011;315;48.738;9.126;2023-06-22T02:58:53;13.17;;;12.00;;
665;SDS011;315;48.738;9.126;2023-06-22T03:01:18;12.10;;;11.00;;
665;SDS011;315;48.738;9.126;2023-06-22T03:03:48;13.17;;;11.33;;
665;SDS011;315;48.738;9.126;2023-06-22T03:06:14;14.90;;;13.40;;
665;SDS011;315;48.738;9.126;2023-06-22T03:08:40;13.10;;;11.80;;
665;SDS011;315;48.738;9.126;2023-06-22T03:11:06;13.53;;;12.33;;
665;SDS011;315;48.738;9.126;2023-06-22T03:13:32;12.47;;;11.30;;
665;SDS011;315;48.738;9.126;2023-06-22T03:15:58;12.30;;;11.10;;
665;SDS011;315;48.738;9.126;2023-06-22T03:18:24;15.40;;;12.00;;
665;SDS011;315;48.738;9.126;2023-06-22T03:20:49;12.33;;;10.97;;
665;SDS011;315;48.738;9.126;2023-06-22T03:23:15;15.27;;;11.97;;
665;SDS011;315;48.738;9.126;2023-06-22T03:25:40;14.27;;;12.87;;
665;SDS011;315;48.738;9.126;2023-06-22T03:28:06;14.50;;;13.17;;
665;SDS011;315;48.738;9.126;2023-06-22T03:30:32;14.93;;;13.63;;
665;SDS011;315;48.738;9.126;2023-06-22T03:32:57;13.73;;;12.50;;
665;SDS011;315;48.738;9.126;2023-06-22T03:35:23;12.87;;;11.63;;
665;SDS011;315;48.738;9.126;2023-06-22T03:37:48;13.40;;;12.13;;
665;SDS011;315;48.738;9.126;2023-06-22T03:40:14;13.67;;;12.20;;
665;SDS011;315;48.738;9.126;2023-06-22T03:42:40;13.70;;;12.40;;
665;SDS011;315;48.738;9.126;2023-06-22T03:45:05;14.20;;;12.70;;
665;SDS011;315;48.738;9.126;2023-06-22T03:47:31;15.57;;;13.97;;
665;SDS011;315;48.738;9.126;2023-06-22T03:49:58;12.27;;;11.10;;
665;SDS011;315;48.738;9.126;2023-06-22T03:52:23;12.27;;;11.17;;
665;SDS011;315;48.738;9.126;2023-06-22T03:54:50;12.67;;;11.57;;
665;SDS011;315;48.738;9.126;2023-06-22T03:57:15;13.07;;;11.97;;
665;SDS011;315;48.738;9.126;2023-06-22T03:59:41;13.20;;;11.90;;
665;SDS011;315;48.738;9.126;2023-06-22T04:02:06;14.33;;;13.03;;
665;SDS011;315;48.738;9.126;2023-06-22T04:04:32;15.07;;;13.60;;
665;SDS011;315;48.738;9.126;2023-06-22T04:07:00;14.87;;;13.13;;
665;SDS011;315;48.738;9.126;2023-06-22T04:09:25;15.37;;;11.10;;
665;SDS011;315;48.738;9.126;2023-06-22T04:11:51;14.07;;;12.73;;
665;SDS011;315;48.738;9.126;2023-06-22T04:14:17;12.40;;;11.20;;
665;SDS011;315;48.738;9.126;2023-06-22T04:16:42;13.47;;;12.27;;
665;SDS011;315;48.738;9.126;2023-06-22T04:19:08;17.40;;;15.83;;
665;SDS011;315;48.738;9.126;2023-06-22T04:21:39;13.60;;;12.33;;
665;SDS011;315;48.738;9.126;2023-06-22T04:24:04;13.60;;;12.23;;
665;SDS011;315;48.738;9.126;2023-06-22T04:26:30;13.10;;;12.10;;
665;SDS011;315;48.738;9.126;2023-06-22T04:28:55;14.13;;;12.00;;
665;SDS011;315;48.738;9.126;2023-06-22T04:31:21;13.40;;;12.30;;
665;SDS011;315;48.738;9.126;2023-06-22T04:33:49;12.90;;;11.63;;
665;SDS011;315;48.738;9.126;2023-06-22T04:36:16;14.30;;;12.90;;
665;SDS011;315;48.738;9.126;2023-06-22T04:38:41;13.47;;;12.30;;
665;SDS011;315;48.738;9.126;2023-06-22T04:41:07;13.60;;;12.27;;
665;SDS011;315;48.738;9.126;2023-06-22T04:43:34;22.07;;;11.63;;
665;SDS011;315;48.738;9.126;2023-06-22T04:46:00;12.60;;;11.50;;
665;SDS011;315;48.738;9.126;2023-06-22T04:48:28;13.10;;;11.67;;
665;SDS011;315;48.738;9.126;2023-06-22T04:50:58;14.10;;;12.73;;
665;SDS011;315;48.738;9.126;2023-06-22T04:53:27;11.73;;;10.50;;
665;SDS011;315;48.738;9.126;2023-06-22T04:55:54;12.33;;;11.33;;
665;SDS011;315;48.738;9.126;2023-06-22T04:58:20;13.63;;;12.43;;
665;SDS011;315;48.738;9.126;2023-06-22T05:00:46;15.10;;;13.70;;
665;SDS011;315;48.738;9.126;2023-06-22T05:03:12;13.90;;;12.60;;
665;SDS011;315;48.738;9.126;2023-06-22T05:05:37;13.63;;;12.33;;
665;SDS011;315;48.738;9.126;2023-06-22T05:08:03;13.93;;;12.60;;
665;SDS011;315;48.738;9.126;2023-06-22T05:10:32;13.50;;;12.20;;
665;SDS011;315;48.738;9.126;2023-06-22T05:12:58;13.80;;;12.50;;
665;SDS011;315;48.738;9.126;2023-06-22T05:15:23;13.00;;;11.90;;
665;SDS011;315;48.738;9.126;2023-06-22T05:17:53;13.57;;;12.30;;
665;SDS011;315;48.738;9.126;2023-06-22T05:20:18;14.03;;;12.63;;
665;SDS011;315;48.738;9.126;2023-06-22T05:22:44;13.83;;;12.43;;
665;SDS011;315;48.738;9.126;2023-06-22T05:25:10;12.73;;;11.43;;
665;SDS011;315;48.738;9.126;2023-06-22T05:27:36;14.67;;;12.40;;
665;SDS011;315;48.738;9.126;2023-06-22T05:30:05;12.93;;;11.70;;
665;SDS011;315;48.738;9.126;2023-06-22T05:32:33;12.80;;;11.57;;
665;SDS011;315;48.738;9.126;2023-06-22T05:34:59;16.03;;;12.23;;
665;SDS011;315;48.738;9.126;2023-06-22T05:37:25;13.60;;;12.30;;
665;SDS011;315;48.738;9.126;2023-06-22T05:39:51;13.60;;;12.40;;
665;SDS011;315;48.738;9.126;2023-06-22T05:42:16;12.23;;;11.13;;
665;SDS011;315;48.738;9.126;2023-06-22T05:44:42;12.33;;;10.80;;
665;SDS011;315;48.738;9.126;2023-06-22T05:47:08;13.80;;;12.40;;
665;SDS011;315;48.738;9.126;2023-06-22T05:49:33;13.70;;;11.47;;
665;SDS011;315;48.738;9.126;2023-06-22T05:51:59;12.33;;;11.23;;
665;SDS011;315;48.738;9.126;2023-06-22T05:54:25;13.27;;;12.07;;
665;SDS011;315;48.738;9.126;2023-06-22T05:56:52;12.07;;;11.07;;
665;SDS011;315;48.738;9.126;2023-06-22T05:59:17;11.07;;;10.10;;
665;SDS011;315;48.738;9.126;2023-06-22T06:01:43;12.27;;;11.13;;
665;SDS011;315;48.738;9.126;2023-06-22T06:04:08;12.20;;;10.80;;
665;SDS011;315;48.738;9.126;2023-06-22T06:06:34;10.30;;;9.40;;
665;SDS011;315;48.738;9.126;2023-06-22T06:09:02;14.87;;;12.20;;
665;SDS011;315;48.738;9.126;2023-06-22T06:11:28;14.33;;;11.67;;
665;SDS011;315;48.738;9.126;2023-06-22T06:13:54;12.67;;;11.47;;
665;SDS011;315;48.738;9.126;2023-06-22T06:16:20;10.43;;;9.60;;
665;SDS011;315;48.738;9.126;2023-06-22T06:18:45;11.70;;;10.60;;
665;SDS011;315;48.738;9.126;2023-06-22T06:21:13;12.07;;;10.97;;
665;SDS011;315;48.738;9.126;2023-06-22T06:23:39;11.67;;;10.60;;
665;SDS011;315;48.738;9.126;2023-06-22T06:26:04;11.50;;;10.30;;
665;SDS011;315;48.738;9.126;2023-06-22T06:28:31;13.53;;;10.30;;
665;SDS011;315;48.738;9.126;2023-06-22T06:30:57;15.83;;;11.57;;
665;SDS011;315;48.738;9.126;2023-06-22T06:33:23;11.33;;;10.03;;
665;SDS011;315;48.738;9.126;2023-06-22T06:35:49;12.17;;;10.87;;
665;SDS011;315;48.738;9.126;2023-06-22T06:38:14;10.27;;;9.20;;
665;SDS011;315;48.738;9.126;2023-06-22T06:40:40;14.70;;;10.67;;
665;SDS011;315;48.738;9.126;2023-06-22T06:43:06;10.33;;;9.23;;
665;SDS011;315;48.738;9.126;2023-06-22T06:45:31;10.87;;;9.80;;
665;SDS011;315;48.738;9.126;2023-06-22T06:47:59;10.10;;;9.10;;
665;SDS011;315;48.738;9.126;2023-06-22T06:50:25;9.80;;;9.00;;
665;SDS011;315;48.738;9.126;2023-06-22T06:52:50;10.30;;;8.70;;
665;SDS011;315;48.738;9.126;2023-06-22T06:55:16;12.53;;;9.97;;
665;SDS011;315;48.738;9.126;2023-06-22T06:57:42;10.03;;;8.93;;
665;SDS011;315;48.738;9.126;2023-06-22T07:00:08;10.40;;;9.40;;
665;SDS011;315;48.738;9.126;2023-06-22T07:02:40;10.00;;;8.90;;
665;SDS011;315;48.738;9.126;2023-06-22T07:05:07;9.23;;;8.30;;
665;SDS011;315;48.738;9.126;2023-06-22T07:07:33;9.27;;;8.33;;
665;SDS011;315;48.738;9.126;2023-06-22T07:09:59;11.43;;;8.80;;
665;SDS011;315;48.738;9.126;2023-06-22T07:12:25;10.17;;;8.30;;
665;SDS011;315;48.738;9.126;2023-06-22T07:14:51;9.37;;;8.10;;
665;SDS011;315;48.738;9.126;2023-06-22T07:17:17;9.40;;;8.53;;
665;SDS011;315;48.738;9.126;2023-06-22T07:19:43;10.83;;;8.63;;
665;SDS011;315;48.738;9.126;2023-06-22T07:22:08;9.47;;;8.57;;
665;SDS011;315;48.738;9.126;2023-06-22T07:24:34;9.40;;;8.40;;
665;SDS011;315;48.738;9.126;2023-06-22T07:26:59;9.13;;;8.30;;
665;SDS011;315;48.738;9.126;2023-06-22T07:29:25;8.57;;;7.70;;
665;SDS011;315;48.738;9.126;2023-06-22T07:31:51;10.30;;;8.20;;
665;SDS011;315;48.738;9.126;2023-06-22T07:34:18;9.23;;;6.97;;
665;SDS011;315;48.738;9.126;2023-06-22T07:36:44;7.13;;;6.43;;
665;SDS011;315;48.738;9.126;2023-06-22T07:39:09;6.67;;;6.17;;
665;SDS011;315;48.738;9.126;2023-06-22T07:41:35;9.97;;;7.03;;
665;SDS011;315;48.738;9.126;2023-06-22T07:44:02;7.00;;;6.30;;
665;SDS011;315;48.738;9.126;2023-06-22T07:46:28;6.50;;;5.90;;
665;SDS011;315;48.738;9.126;2023-06-22T07:48:55;8.23;;;7.57;;
665;SDS011;315;48.738;9.126;2023-06-22T07:51:21;8.83;;;6.70;;
665;SDS011;315;48.738;9.126;2023-06-22T07:53:46;6.33;;;5.80;;
665;SDS011;315;48.738;9.126;2023-06-22T07:56:12;7.73;;;7.03;;
665;SDS011;315;48.738;9.126;2023-06-22T07:58:38;6.53;;;5.73;;
665;SDS011;315;48.738;9.126;2023-06-22T08:01:04;7.87;;;7.07;;
665;SDS011;315;48.738;9.126;2023-06-22T08:03:31;7.53;;;6.83;;
665;SDS011;315;48.738;9.126;2023-06-22T08:05:56;7.43;;;5.70;;
665;SDS011;315;48.738;9.126;2023-06-22T08:08:22;8.77;;;7.97;;
665;SDS011;315;48.738;9.126;2023-06-22T08:10:48;7.93;;;6.77;;
665;SDS011;315;48.738;9.126;2023-06-22T08:13:13;7.30;;;6.23;;
665;SDS011;315;48.738;9.126;2023-06-22T08:15:39;8.83;;;6.63;;
665;SDS011;315;48.738;9.126;2023-06-22T08:18:04;10.53;;;6.47;;
665;SDS011;315;48.738;9.126;2023-06-22T08:20:30;10.63;;;7.40;;
665;SDS011;315;48.738;9.126;2023-06-22T08:22:56;9.40;;;7.43;;
665;SDS011;315;48.738;9.126;2023-06-22T08:25:23;9.77;;;7.40;;
665;SDS011;315;48.738;9.126;2023-06-22T08:27:48;9.20;;;7.30;;
665;SDS011;315;48.738;9.126;2023-06-22T08:30:14;10.00;;;7.83;;
665;SDS011;315;48.738;9.126;2023-06-22T08:32:41;9.57;;;7.27;;
665;SDS011;315;48.738;9.126;2023-06-22T08:35:06;8.23;;;7.37;;
665;SDS011;315;48.738;9.126;2023-06-22T08:37:34;7.57;;;6.83;;
665;SDS011;315;48.738;9.126;2023-06-22T08:40:01;7.70;;;6.87;;
665;SDS011;315;48.738;9.126;2023-06-22T08:42:37;8.43;;;6.63;;
665;SDS011;315;48.738;9.126;2023-06-22T08:45:03;14.30;;;7.93;;
665;SDS011;315;48.738;9.126;2023-06-22T08:47:29;9.30;;;8.07;;
665;SDS011;315;48.738;9.126;2023-06-22T08:49:54;7.20;;;6.20;;
665;SDS011;315;48.738;9.126;2023-06-22T08:52:20;8.47;;;7.63;;
665;SDS011;315;48.738;9.126;2023-06-22T08:54:46;9.70;;;6.63;;
665;SDS011;315;48.738;9.126;2023-06-22T08:57:12;8.37;;;7.50;;
665;SDS011;315;48.738;9.126;2023-06-22T08:59:37;9.43;;;7.70;;
665;SDS011;315;48.738;9.126;2023-06-22T09:02:03;9.50;;;6.57;;
665;SDS011;315;48.738;9.126;2023-06-22T09:04:29;8.63;;;7.83;;
665;SDS011;315;48.738;9.126;2023-06-22T09:06:54;13.80;;;8.67;;
665;SDS011;315;48.738;9.126;2023-06-22T09:09:20;8.23;;;7.43;;
665;SDS011;315;48.738;9.126;2023-06-22T09:11:46;9.03;;;8.10;;
665;SDS011;315;48.738;9.126;2023-06-22T09:14:12;8.97;;;7.30;;
665;SDS011;315;48.738;9.126;2023-06-22T09:16:38;10.53;;;9.53;;
665;SDS011;315;48.738;9.126;2023-06-22T09:19:03;9.97;;;7.50;;
665;SDS011;315;48.738;9.126;2023-06-22T09:21:29;12.87;;;7.57;;
665;SDS011;315;48.738;9.126;2023-06-22T09:23:54;8.57;;;7.80;;
665;SDS011;315;48.738;9.126;2023-06-22T09:26:20;7.73;;;7.00;;
665;SDS011;315;48.738;9.126;2023-06-22T09:28:47;8.20;;;7.40;;
665;SDS011;315;48.738;9.126;2023-06-22T09:31:13;8.40;;;7.03;;
665;SDS011;315;48.738;9.126;2023-06-22T09:33:39;12.70;;;8.23;;
665;SDS011;315;48.738;9.126;2023-06-22T09:36:06;11.60;;;8.30;;
665;SDS011;315;48.738;9.126;2023-06-22T09:38:34;9.10;;;7.77;;
665;SDS011;315;48.738;9.126;2023-06-22T09:41:00;9.33;;;7.90;;
665;SDS011;315;48.738;9.126;2023-06-22T09:43:25;9.27;;;7.90;;
665;SDS011;315;48.738;9.126;2023-06-22T09:45:51;18.97;;;9.23;;
665;SDS011;315;48.738;9.126;2023-06-22T09:48:17;9.27;;;7.60;;
665;SDS011;315;48.738;9.126;2023-06-22T09:50:42;8.90;;;7.80;;
665;SDS011;315;48.738;9.126;2023-06-22T09:53:08;10.00;;;8.70;;
665;SDS011;315;48.738;9.126;2023-06-22T09:55:33;10.87;;;7.70;;
665;SDS011;315;48.738;9.126;2023-06-22T09:57:59;9.80;;;8.70;;
665;SDS011;315;48.738;9.126;2023-06-22T10:00:24;8.73;;;7.70;;
665;SDS011;315;48.738;9.126;2023-06-22T10:02:51;9.60;;;7.50;;
665;SDS011;315;48.738;9.126;2023-06-22T10:05:17;10.03;;;8.73;;
665;SDS011;315;48.738;9.126;2023-06-22T10:07:42;11.43;;;9.40;;
665;SDS011;315;48.738;9.126;2023-06-22T10:10:09;10.83;;;8.50;;
665;SDS011;315;48.738;9.126;2023-06-22T10:12:35;10.20;;;8.00;;
665;SDS011;315;48.738;9.126;2023-06-22T10:15:01;11.60;;;8.37;;
665;SDS011;315;48.738;9.126;2023-06-22T10:17:27;10.50;;;8.17;;
665;SDS011;315;48.738;9.126;2023-06-22T10:19:53;14.70;;;8.40;;
665;SDS011;315;48.738;9.126;2023-06-22T10:22:18;10.50;;;8.30;;
665;SDS011;315;48.738;9.126;2023-06-22T10:24:44;12.43;;;8.37;;
665;SDS011;315;48.738;9.126;2023-06-22T10:27:10;9.53;;;7.20;;
665;SDS011;315;48.738;9.126;2023-06-22T10:29:36;9.90;;;7.33;;
665;SDS011;315;48.738;9.126;2023-06-22T10:32:02;9.40;;;8.30;;
665;SDS011;315;48.738;9.126;2023-06-22T10:34:28;17.20;;;9.47;;
665;SDS011;315;48.738;9.126;2023-06-22T10:36:54;8.33;;;7.30;;
665;SDS011;315;48.738;9.126;2023-06-22T10:39:19;9.97;;;8.67;;
665;SDS011;315;48.738;9.126;2023-06-22T10:41:45;10.10;;;9.07;;
665;SDS011;315;48.738;9.126;2023-06-22T10:44:10;8.60;;;7.77;;
665;SDS011;315;48.738;9.126;2023-06-22T10:46:37;10.37;;;8.20;;
665;SDS011;315;48.738;9.126;2023-06-22T10:49:02;9.60;;;7.57;;
665;SDS011;315;48.738;9.126;2023-06-22T10:51:28;11.33;;;8.90;;
665;SDS011;315;48.738;9.126;2023-06-22T10:53:54;9.13;;;8.00;;
665;SDS011;315;48.738;9.126;2023-06-22T10:56:19;9.80;;;8.73;;
665;SDS011;315;48.738;9.126;2023-06-22T10:58:45;10.17;;;8.83;;
665;SDS011;315;48.738;9.126;2023-06-22T11:01:11;11.83;;;8.50;;
665;SDS011;315;48.738;9.126;2023-06-22T11:03:36;14.70;;;8.07;;
665;SDS011;315;48.738;9.126;2023-06-22T11:06:02;8.90;;;7.90;;
665;SDS011;315;48.738;9.126;2023-06-22T11:08:28;10.50;;;7.80;;
665;SDS011;315;48.738;9.126;2023-06-22T11:10:53;11.47;;;9.00;;
665;SDS011;315;48.738;9.126;2023-06-22T11:13:19;9.33;;;8.43;;
665;SDS011;315;48.738;9.126;2023-06-22T11:15:44;8.73;;;7.83;;
665;SDS011;315;48.738;9.126;2023-06-22T11:18:10;15.33;;;8.60;;
665;SDS011;315;48.738;9.126;2023-06-22T11:20:35;10.50;;;9.50;;
665;SDS011;315;48.738;9.126;2023-06-22T11:23:04;11.03;;;8.00;;
665;SDS011;315;48.738;9.126;2023-06-22T11:25:30;14.27;;;9.20;;
665;SDS011;315;48.738;9.126;2023-06-22T11:27:56;10.87;;;8.93;;
665;SDS011;315;48.738;9.126;2023-06-22T11:30:21;9.97;;;7.93;;
665;SDS011;315;48.738;9.126;2023-06-22T11:32:48;10.80;;;9.17;;
665;SDS011;315;48.738;9.126;2023-06-22T11:35:13;12.90;;;8.63;;
665;SDS011;315;48.738;9.126;2023-06-22T11:37:39;8.57;;;7.70;;
665;SDS011;315;48.738;9.126;2023-06-22T11:40:05;10.50;;;7.80;;
665;SDS011;315;48.738;9.126;2023-06-22T11:42:33;10.53;;;8.77;;
665;SDS011;315;48.738;9.126;2023-06-22T11:44:59;8.70;;;7.87;;
665;SDS011;315;48.738;9.126;2023-06-22T11:47:25;12.27;;;9.27;;
665;SDS011;315;48.738;9.126;2023-06-22T11:49:50;14.03;;;9.30;;
665;SDS011;315;48.738;9.126;2023-06-22T11:52:16;12.10;;;8.80;;
665;SDS011;315;48.738;9.126;2023-06-22T11:54:42;12.47;;;9.03;;
665;SDS011;315;48.738;9.126;2023-06-22T11:57:08;12.97;;;8.67;;
665;SDS011;315;48.738;9.126;2023-06-22T11:59:34;10.03;;;9.07;;
665;SDS011;315;48.738;9.126;2023-06-22T12:01:59;9.50;;;8.60;;
665;SDS011;315;48.738;9.126;2023-06-22T12:04:25;8.20;;;7.30;;
665;SDS011;315;48.738;9.126;2023-06-22T12:06:50;12.33;;;8.67;;
665;SDS011;315;48.738;9.126;2023-06-22T12:09:16;14.13;;;9.13;;
665;SDS011;315;48.738;9.126;2023-06-22T12:11:41;10.93;;;8.70;;
665;SDS011;315;48.738;9.126;2023-06-22T12:14:07;11.67;;;9.30;;
665;SDS011;315;48.738;9.126;2023-06-22T12:16:32;11.27;;;9.20;;
665;SDS011;315;48.738;9.126;2023-06-22T12:18:58;12.23;;;8.73;;
665;SDS011;315;48.738;9.126;2023-06-22T12:21:24;8.47;;;7.60;;
665;SDS011;315;48.738;9.126;2023-06-22T12:23:49;10.17;;;8.70;;
665;SDS011;315;48.738;9.126;2023-06-22T12:26:15;10.73;;;9.50;;
665;SDS011;315;48.738;9.126;2023-06-22T12:28:41;11.20;;;9.60;;
665;SDS011;315;48.738;9.126;2023-06-22T12:31:06;14.50;;;9.33;;
665;SDS011;315;48.738;9.126;2023-06-22T12:33:32;14.07;;;9.50;;
665;SDS011;315;48.738;9.126;2023-06-22T12:35:57;15.67;;;10.47;;
665;SDS011;315;48.738;9.126;2023-06-22T12:38:23;12.77;;;8.67;;
665;SDS011;315;48.738;9.126;2023-06-22T12:40:51;13.17;;;9.40;;
665;SDS011;315;48.738;9.126;2023-06-22T12:43:17;10.53;;;8.70;;
665;SDS011;315;48.738;9.126;2023-06-22T12:45:43;9.73;;;8.10;;
665;SDS011;315;48.738;9.126;2023-06-22T12:48:08;13.20;;;8.63;;
665;SDS011;315;48.738;9.126;2023-06-22T12:50:34;12.73;;;9.10;;
665;SDS011;315;48.738;9.126;2023-06-22T12:53:00;9.97;;;8.97;;
665;SDS011;315;48.738;9.126;2023-06-22T12:55:27;10.00;;;9.00;;
665;SDS011;315;48.738;9.126;2023-06-22T12:57:53;13.33;;;9.50;;
665;SDS011;315;48.738;9.126;2023-06-22T13:00:18;11.90;;;8.90;;
665;SDS011;315;48.738;9.126;2023-06-22T13:02:44;13.17;;;9.53;;
665;SDS011;315;48.738;9.126;2023-06-22T13:05:10;18.13;;;11.20;;
665;SDS011;315;48.738;9.126;2023-06-22T13:07:36;16.00;;;9.80;;
665;SDS011;315;48.738;9.126;2023-06-22T13:10:01;12.37;;;8.97;;
665;SDS011;315;48.738;9.126;2023-06-22T13:12:27;15.90;;;8.80;;
665;SDS011;315;48.738;9.126;2023-06-22T13:14:53;11.50;;;9.43;;
665;SDS011;315;48.738;9.126;2023-06-22T13:17:18;10.60;;;9.13;;
665;SDS011;315;48.738;9.126;2023-06-22T13:19:44;16.37;;;8.10;;
665;SDS011;315;48.738;9.126;2023-06-22T13:22:26;12.47;;;8.87;;
665;SDS011;315;48.738;9.126;2023-06-22T13:24:52;14.53;;;9.50;;
665;SDS011;315;48.738;9.126;2023-06-22T13:27:18;12.30;;;9.90;;
665;SDS011;315;48.738;9.126;2023-06-22T13:29:43;11.03;;;8.70;;
665;SDS011;315;48.738;9.126;2023-06-22T13:32:09;12.07;;;9.33;;
665;SDS011;315;48.738;9.126;2023-06-22T13:34:34;14.67;;;8.50;;
665;SDS011;315;48.738;9.126;2023-06-22T13:37:00;10.43;;;7.67;;
665;SDS011;315;48.738;9.126;2023-06-22T13:39:25;12.97;;;8.10;;
665;SDS011;315;48.738;9.126;2023-06-22T13:41:51;9.67;;;8.70;;
665;SDS011;315;48.738;9.126;2023-06-22T13:44:16;9.70;;;8.70;;
665;SDS011;315;48.738;9.126;2023-06-22T13:46:42;11.30;;;8.50;;
665;SDS011;315;48.738;9.126;2023-06-22T13:49:07;11.27;;;8.37;;
665;SDS011;315;48.738;9.126;2023-06-22T13:51:33;11.00;;;8.80;;
665;SDS011;315;48.738;9.126;2023-06-22T13:53:58;10.50;;;9.30;;
665;SDS011;315;48.738;9.126;2023-06-22T13:56:24;9.23;;;8.33;;
665;SDS011;315;48.738;9.126;2023-06-22T13:58:49;13.10;;;8.33;;
665;SDS011;315;48.738;9.126;2023-06-22T14:01:15;17.13;;;8.87;;
665;SDS011;315;48.738;9.126;2023-06-22T14:03:40;10.27;;;7.67;;
665;SDS011;315;48.738;9.126;2023-06-22T14:06:06;13.57;;;8.83;;
665;SDS011;315;48.738;9.126;2023-06-22T14:08:31;14.83;;;8.53;;
665;SDS011;315;48.738;9.126;2023-06-22T14:10:57;10.43;;;8.13;;
665;SDS011;315;48.738;9.126;2023-06-22T14:13:22;14.60;;;7.40;;
665;SDS011;315;48.738;9.126;2023-06-22T14:15:48;16.40;;;7.60;;
665;SDS011;315;48.738;9.126;2023-06-22T14:18:14;9.17;;;7.90;;
665;SDS011;315;48.738;9.126;2023-06-22T14:20:40;10.70;;;8.17;;
665;SDS011;315;48.738;9.126;2023-06-22T14:23:05;8.50;;;7.70;;
665;SDS011;315;48.738;9.126;2023-06-22T14:25:31;12.13;;;7.80;;
665;SDS011;315;48.738;9.126;2023-06-22T14:27:56;13.10;;;9.20;;
665;SDS011;315;48.738;9.126;2023-06-22T14:30:22;14.43;;;6.43;;
665;SDS011;315;48.738;9.126;2023-06-22T14:32:47;9.13;;;6.20;;
665;SDS011;315;48.738;9.126;2023-06-22T14:35:13;13.67;;;7.63;;
665;SDS011;315;48.738;9.126;2023-06-22T14:37:38;10.87;;;6.03;;
665;SDS011;315;48.738;9.126;2023-06-22T14:40:04;10.30;;;6.67;;
665;SDS011;315;48.738;9.126;2023-06-22T14:42:30;11.93;;;5.23;;
665;SDS011;315;48.738;9.126;2023-06-22T14:44:56;8.63;;;6.00;;
665;SDS011;315;48.738;9.126;2023-06-22T14:47:21;19.53;;;5.27;;
665;SDS011;315;48.738;9.126;2023-06-22T14:49:47;10.23;;;6.17;;
665;SDS011;315;48.738;9.126;2023-06-22T14:52:13;9.30;;;5.37;;
665;SDS011;315;48.738;9.126;2023-06-22T14:54:39;8.10;;;5.30;;
665;SDS011;315;48.738;9.126;2023-06-22T14:57:04;7.83;;;5.17;;
665;SDS011;315;48.738;9.126;2023-06-22T14:59:30;6.57;;;5.10;;
665;SDS011;315;48.738;9.126;2023-06-22T15:01:56;12.43;;;5.70;;
665;SDS011;315;48.738;9.126;2023-06-22T15:04:21;12.93;;;5.50;;
665;SDS011;315;48.738;9.126;2023-06-22T15:06:47;7.70;;;5.20;;
665;SDS011;315;48.738;9.126;2023-06-22T15:09:12;8.00;;;4.50;;
665;SDS011;315;48.738;9.126;2023-06-22T15:11:38;6.93;;;5.23;;
665;SDS011;315;48.738;9.126;2023-06-22T15:14:04;14.40;;;5.70;;
665;SDS011;315;48.738;9.126;2023-06-22T15:16:29;11.77;;;5.63;;
665;SDS011;315;48.738;9.126;2023-06-22T15:18:54;9.83;;;5.03;;
665;SDS011;315;48.738;9.126;2023-06-22T15:21:20;10.80;;;5.00;;
665;SDS011;315;48.738;9.126;2023-06-22T15:23:46;9.70;;;5.40;;
665;SDS011;315;48.738;9.126;2023-06-22T15:26:11;9.60;;;4.87;;
665;SDS011;315;48.738;9.126;2023-06-22T15:28:37;13.07;;;4.43;;
665;SDS011;315;48.738;9.126;2023-06-22T15:31:04;8.13;;;4.57;;